Four Corners Regional Airport Farmington US
ICAO: KFMN
IATA: FMN
Category: Medium
Scheduled Services: No

Elevation: 5506 ft
TransAlt. 18000 ft.

Airport Communications:
ATIS:127.15
DENVER CNTR:118.575
CTAF:118.9
GND:121.7
ALBUQUERQUE RDO:122.4
FARMINGTON TWR:118.9
UNICOM:122.95

KFMN Zoom In..

If you have problems with the map follow the link
https://www.worldairports.se/pages/airport.php?
ICAO=KFMN

Runways:

(A) RW 05 length 6500 ft width 150 ft
---- / hdg 53

(B) RW 07 length 6704 ft width 100 ft
---- / hdg 76

(C) RW 23 length 6500 ft width 150 ft
---- / hdg 233

(D) RW 25 length 6704 ft width 100 ft
ILS 111.90 / hdg 256

Location; KFMN
Day. 22 / Time. 11.53 Zulu
* Altimeter: 30.17
* Temperature: 09° c. 48.2°f.
* Wind from: 070° Speed 06 kn.
Dewpoint: 03° c.
Visibility: 10 Statute Miles.
Clouds: Clear (automated report).

KFMN 221153Z 07006KT 10SM CLR 09/03 A3017 RMK AO2 SLP179 T00940028 10144 20089 55003


Wind From 070°
Speed 06 kn.

 
 
jpsmedia.com for Web Design worldairports.se 2018   terms of use